^^
Datos históricos de la estación: Murcia-Puente Tocinos
Diario Informe para Febrero 5, 2019 Unidades:  Métrico    Ingés   Ambas
Diario Semanal Mensual Anual
  Máxima: Mínima: Promedio:
Temperatura: 28.9 °C 18.5 °C 24 °C
Punto de rocio: 15.4 °C 0 °C 7.8 °C
Humedad: 80% 16.5% 43%
Velocidad viento: 27km/h 0km/h 10.8km/h
Racha viento: 50.4km/h - -
Viento- - Oeste
Presión: 1011.1 hPa 1005.2 hPa -
Precipitación: 0.0 mm    
 
 
Tabla de datos para Febrero 5, 2019
Hora Temperatura Punto de rocio Presión Viento Velocidad viento Racha viento Humedad Intensidad lluvia(por hora) Nubes
00:04 20.8 °C 12.4 °C 1006.9 hPa NO 5 km/h 9.7 km/h 59% 0.0 mm
00:09 20.7 °C 12.5 °C 1006.9 hPa NNO 4.9 km/h 8 km/h 59.3% 0.0 mm
00:14 20.7 °C 12.6 °C 1006.9 hPa NE 4.7 km/h 11.9 km/h 60% 0.0 mm
00:19 20.6 °C 12.6 °C 1006.9 hPa North 4.8 km/h 11.3 km/h 60% 0.0 mm
00:24 20.7 °C 12.6 °C 1006.9 hPa NO 5 km/h 9.7 km/h 60.1% 0.0 mm
00:29 20.7 °C 12.9 °C 1006.9 hPa SSO 4.9 km/h 9.7 km/h 61% 0.0 mm
00:34 20.9 °C 13.2 °C 1006.9 hPa SSO 4.7 km/h 13.7 km/h 61.4% 0.0 mm
00:39 21.1 °C 13.5 °C 1006.8 hPa SO 5.1 km/h 14.5 km/h 61.8% 0.0 mm
00:44 21.1 °C 13.7 °C 1006.8 hPa SSO 5.8 km/h 15.6 km/h 62.7% 0.0 mm
00:49 21.1 °C 13.8 °C 1006.8 hPa SSO 6.7 km/h 19 km/h 63.3% 0.0 mm
00:54 21 °C 13.9 °C 1006.7 hPa SSO 9.5 km/h 19.3 km/h 64% 0.0 mm
00:59 21 °C 13.9 °C 1006.7 hPa SSO 10.1 km/h 14.8 km/h 64% 0.0 mm
01:04 20.9 °C 14 °C 1006.7 hPa SO 11.1 km/h 14.8 km/h 64.6% 0.0 mm
01:09 20.9 °C 14.1 °C 1006.6 hPa SSO 10 km/h 16.1 km/h 65% 0.0 mm
01:14 20.8 °C 14.1 °C 1006.6 hPa SSO 8.4 km/h 16.7 km/h 65.3% 0.0 mm
01:19 20.8 °C 14.2 °C 1006.6 hPa SSO 8.4 km/h 12.9 km/h 66% 0.0 mm
01:24 20.7 °C 14.1 °C 1006.4 hPa SSO 8.4 km/h 11.3 km/h 66% 0.0 mm
01:29 20.7 °C 14.1 °C 1006.4 hPa SSO 7.4 km/h 9.7 km/h 66% 0.0 mm
01:34 20.7 °C 14.1 °C 1006.4 hPa Oeste 5.8 km/h 8.4 km/h 66% 0.0 mm
01:39 20.7 °C 14 °C 1006.3 hPa NO 4.8 km/h 8 km/h 66% 0.0 mm
01:44 20.5 °C 14.1 °C 1006.3 hPa NO 3.2 km/h 7.6 km/h 66.6% 0.0 mm
01:49 20.2 °C 14.1 °C 1006.3 hPa NO 3.8 km/h 8.4 km/h 67.8% 0.0 mm
01:54 20 °C 14.1 °C 1006.3 hPa NNO 4.7 km/h 8.4 km/h 68.9% 0.0 mm
01:59 19.8 °C 14.1 °C 1006.3 hPa NO 4.7 km/h 8 km/h 69.8% 0.0 mm
02:04 19.7 °C 14.1 °C 1006.3 hPa NO 4.7 km/h 8 km/h 70% 0.0 mm
02:09 19.7 °C 14 °C 1006.1 hPa ONO 4.7 km/h 8 km/h 70% 0.0 mm
02:14 19.6 °C 14.3 °C 1006.1 hPa Oeste 4.7 km/h 8.4 km/h 71.2% 0.0 mm
02:19 19.6 °C 14.4 °C 1006.2 hPa ONO 4.7 km/h 8 km/h 72.1% 0.0 mm
02:24 19.6 °C 14.5 °C 1006.2 hPa Oeste 4.7 km/h 8 km/h 72.6% 0.0 mm
02:29 19.6 °C 14.8 °C 1006.2 hPa Oeste 4.4 km/h 8 km/h 73.9% 0.0 mm
02:34 19.6 °C 15.1 °C 1006.3 hPa Oeste 3.9 km/h 8 km/h 75% 0.0 mm
02:39 19.6 °C 15.2 °C 1006.3 hPa OSO 3.6 km/h 8 km/h 75.7% 0.0 mm
02:44 19.6 °C 15.1 °C 1006.3 hPa Oeste 3.2 km/h 12.2 km/h 75.5% 0.0 mm
02:49 19.5 °C 14.7 °C 1006.3 hPa OSO 4.4 km/h 13 km/h 73.8% 0.0 mm
02:54 19.6 °C 14.4 °C 1006.1 hPa OSO 6.5 km/h 13 km/h 72.1% 0.0 mm
02:59 19.7 °C 14.3 °C 1006.1 hPa SO 6.9 km/h 12.9 km/h 71.1% 0.0 mm
03:04 19.7 °C 14.2 °C 1006.1 hPa SO 7.6 km/h 13 km/h 70.7% 0.0 mm
03:09 19.8 °C 14.2 °C 1006.0 hPa SSO 6.9 km/h 12.9 km/h 70% 0.0 mm
03:14 19.8 °C 14.2 °C 1006.0 hPa SSO 5.8 km/h 14.8 km/h 70% 0.0 mm
03:19 19.8 °C 14.2 °C 1006.0 hPa SO 6.2 km/h 14.5 km/h 70% 0.0 mm
03:24 19.8 °C 14.2 °C 1005.9 hPa SO 6.9 km/h 11.3 km/h 70% 0.0 mm
03:29 19.7 °C 13.9 °C 1005.9 hPa SO 6.9 km/h 11.3 km/h 69.5% 0.0 mm
03:34 19.7 °C 13.9 °C 1005.9 hPa SO 6.9 km/h 11.3 km/h 69.1% 0.0 mm
03:39 19.7 °C 13.8 °C 1005.6 hPa SO 6.5 km/h 10 km/h 69% 0.0 mm
03:44 19.7 °C 13.8 °C 1005.6 hPa SO 5.8 km/h 9.7 km/h 69% 0.0 mm
03:49 19.7 °C 13.8 °C 1005.6 hPa OSO 5.4 km/h 8.4 km/h 69% 0.0 mm
03:54 19.7 °C 13.8 °C 1005.6 hPa Oeste 4.7 km/h 8.4 km/h 69% 0.0 mm
03:59 19.6 °C 14 °C 1005.6 hPa NO 4.3 km/h 8 km/h 70% 0.0 mm
04:04 19.5 °C 14 °C 1005.6 hPa ONO 3.9 km/h 8 km/h 70.6% 0.0 mm
04:09 19.4 °C 14.2 °C 1005.5 hPa ONO 3.2 km/h 6.4 km/h 71.7% 0.0 mm
04:14 19.3 °C 14 °C 1005.5 hPa Oeste 2.2 km/h 8 km/h 71.4% 0.0 mm
04:19 19.3 °C 14.1 °C 1005.5 hPa Oeste 2.5 km/h 8 km/h 72% 0.0 mm
04:24 19.3 °C 14.1 °C 1005.3 hPa Oeste 2.9 km/h 5.8 km/h 72% 0.0 mm
04:29 19.2 °C 14.1 °C 1005.3 hPa Oeste 3 km/h 6.4 km/h 72% 0.0 mm
04:34 19.2 °C 14.1 °C 1005.4 hPa Oeste 3.2 km/h 7.4 km/h 72% 0.0 mm
04:39 19.2 °C 14.1 °C 1005.4 hPa Oeste 3.2 km/h 8 km/h 72% 0.0 mm
04:44 19.2 °C 14.1 °C 1005.4 hPa OSO 3.2 km/h 7.4 km/h 72% 0.0 mm
04:49 19.2 °C 14.1 °C 1005.4 hPa Sur 3.2 km/h 8.4 km/h 72% 0.0 mm
04:54 19.2 °C 14.1 °C 1005.2 hPa Sur 3.2 km/h 9.5 km/h 72% 0.0 mm
04:59 19.1 °C 14.1 °C 1005.2 hPa Sur 4.3 km/h 9.7 km/h 72.7% 0.0 mm
05:04 19.1 °C 14.1 °C 1005.4 hPa SSE 5.8 km/h 11.1 km/h 73% 0.0 mm
05:09 19 °C 14.2 °C 1005.4 hPa Sur 6.4 km/h 11.9 km/h 73.9% 0.0 mm
05:14 18.9 °C 14.4 °C 1005.4 hPa SSO 7.6 km/h 11.3 km/h 74.8% 0.0 mm
05:19 18.9 °C 14.4 °C 1005.4 hPa Sur 6.9 km/h 9.7 km/h 75% 0.0 mm
05:24 18.9 °C 14.5 °C 1005.4 hPa Sur 5.8 km/h 9.3 km/h 75.8% 0.0 mm
05:29 19 °C 14.6 °C 1005.4 hPa SSO 6 km/h 9.7 km/h 76% 0.0 mm
05:34 19 °C 14.7 °C 1005.4 hPa SSO 6.5 km/h 9.7 km/h 76% 0.0 mm
05:39 19 °C 14.7 °C 1005.2 hPa SO 5.9 km/h 8 km/h 76% 0.0 mm
05:44 19.1 °C 14.8 °C 1005.2 hPa Oeste 5 km/h 7.4 km/h 76% 0.0 mm
05:49 19.1 °C 14.8 °C 1005.3 hPa Oeste 4.6 km/h 8 km/h 76% 0.0 mm
05:54 19.1 °C 14.7 °C 1005.3 hPa Oeste 3.9 km/h 8 km/h 76% 0.0 mm
05:59 18.9 °C 14.6 °C 1005.3 hPa SSO 4.3 km/h 10 km/h 76.1% 0.0 mm
06:04 18.9 °C 14.7 °C 1005.3 hPa Sur 5 km/h 11.9 km/h 76.9% 0.0 mm
06:09 18.9 °C 14.6 °C 1005.2 hPa Sur 5.3 km/h 11.9 km/h 76% 0.0 mm
06:14 18.8 °C 14.8 °C 1005.2 hPa SSO 5.8 km/h 13.7 km/h 77.3% 0.0 mm
06:19 18.8 °C 15 °C 1005.3 hPa SO 6.7 km/h 14.5 km/h 78.5% 0.0 mm
06:24 18.8 °C 14.9 °C 1005.3 hPa SO 8.4 km/h 14.5 km/h 78.4% 0.0 mm
06:29 18.7 °C 14.8 °C 1005.3 hPa SO 7.8 km/h 11.3 km/h 78.2% 0.0 mm
06:34 18.7 °C 14.9 °C 1005.3 hPa SSO 6.9 km/h 11.1 km/h 78.4% 0.0 mm
06:39 18.6 °C 14.9 °C 1005.2 hPa SSO 6.5 km/h 11.3 km/h 79% 0.0 mm
06:44 18.6 °C 14.9 °C 1005.2 hPa SSO 5.8 km/h 10 km/h 79% 0.0 mm
06:49 18.6 °C 14.9 °C 1005.3 hPa SO 6.4 km/h 13.7 km/h 79.3% 0.0 mm
06:54 18.5 °C 15 °C 1005.3 hPa SO 7.6 km/h 14.5 km/h 80% 0.0 mm
06:59 18.6 °C 15 °C 1005.3 hPa OSO 7.3 km/h 14.5 km/h 80% 0.0 mm
07:04 18.6 °C 15.1 °C 1005.5 hPa SO 6.9 km/h 11.3 km/h 80% 0.0 mm
07:09 18.6 °C 15.1 °C 1005.5 hPa SO 6.8 km/h 11.3 km/h 80% 0.0 mm
07:14 18.6 °C 15.1 °C 1005.5 hPa OSO 6.5 km/h 11.3 km/h 80% 0.0 mm
07:19 18.6 °C 15.1 °C 1005.6 hPa SO 6.5 km/h 11.1 km/h 80% 0.0 mm
07:24 18.6 °C 15.1 °C 1005.6 hPa SO 6.5 km/h 11.3 km/h 80% 0.0 mm
07:29 18.7 °C 15.1 °C 1005.6 hPa OSO 6.6 km/h 11.3 km/h 79.9% 0.0 mm
07:34 18.7 °C 15 °C 1005.7 hPa SO 6.9 km/h 11.3 km/h 79% 0.0 mm
07:39 18.8 °C 15.1 °C 1005.7 hPa SSO 6.2 km/h 11.3 km/h 79% 0.0 mm
07:44 18.9 °C 15.1 °C 1005.7 hPa SSO 5 km/h 8 km/h 79% 0.0 mm
07:49 19 °C 15.2 °C 1005.9 hPa SSO 4.9 km/h 8 km/h 79% 0.0 mm
07:54 19.1 °C 15.4 °C 1005.9 hPa SO 4.7 km/h 9.5 km/h 79% 0.0 mm
07:59 19.2 °C 15.4 °C 1005.9 hPa SSO 4.3 km/h 10 km/h 78.4% 0.0 mm
08:04 19.4 °C 15.4 °C 1005.9 hPa OSO 3.9 km/h 9.7 km/h 77.6% 0.0 mm
08:09 19.6 °C 15.4 °C 1005.9 hPa OSO 4.3 km/h 9.7 km/h 77% 0.0 mm
08:14 19.7 °C 15.3 °C 1005.9 hPa SO 5 km/h 9.7 km/h 76.1% 0.0 mm
08:19 19.8 °C 15.4 °C 1006.0 hPa Sur 4.9 km/h 12.2 km/h 75.9% 0.0 mm
08:24 19.8 °C 15.2 °C 1006.0 hPa SSO 4.7 km/h 13 km/h 75% 0.0 mm
08:29 19.6 °C 15.1 °C 1006.0 hPa SSO 6 km/h 14.8 km/h 75% 0.0 mm
08:34 19.6 °C 15.1 °C 1006.1 hPa SSO 8.4 km/h 14.5 km/h 75% 0.0 mm
08:39 19.6 °C 15.1 °C 1006.1 hPa SSO 8.8 km/h 14.8 km/h 75% 0.0 mm
08:44 19.7 °C 15.2 °C 1006.1 hPa SSO 9.5 km/h 14.5 km/h 75% 0.0 mm
08:49 19.7 °C 15.2 °C 1006.2 hPa OSO 9.5 km/h 14.5 km/h 74.9% 0.0 mm
08:54 19.8 °C 15.1 °C 1006.2 hPa SO 9.5 km/h 16.1 km/h 74% 0.0 mm
08:59 19.9 °C 15.1 °C 1006.2 hPa SO 9.1 km/h 16.7 km/h 73.8% 0.0 mm
09:04 20.1 °C 15.1 °C 1006.5 hPa SSO 8.4 km/h 11.3 km/h 72.9% 0.0 mm
09:09 20.3 °C 15 °C 1006.5 hPa Sur 8.1 km/h 11.3 km/h 71.6% 0.0 mm
09:14 20.6 °C 15.2 °C 1006.5 hPa SE 7.6 km/h 11.3 km/h 71.1% 0.0 mm
09:19 20.9 °C 15.2 °C 1006.7 hPa SE 6.6 km/h 10 km/h 69.7% 0.0 mm
09:24 21.2 °C 15 °C 1006.7 hPa Sur 5 km/h 9.7 km/h 67.8% 0.0 mm
09:29 21.3 °C 14.8 °C 1006.7 hPa Sur 5 km/h 9.7 km/h 66.5% 0.0 mm
09:34 21.6 °C 14.8 °C 1006.7 hPa SSE 5 km/h 11.1 km/h 65.3% 0.0 mm
09:39 21.8 °C 14.6 °C 1006.5 hPa SSE 5.3 km/h 11.3 km/h 63.8% 0.0 mm
09:44 22.1 °C 14.7 °C 1006.5 hPa SO 5.8 km/h 11.3 km/h 63% 0.0 mm
09:49 22.3 °C 14.8 °C 1006.7 hPa SSE 5.4 km/h 9.7 km/h 62.2% 0.0 mm
09:54 22.7 °C 14.8 °C 1006.7 hPa SSE 4.7 km/h 8 km/h 60.9% 0.0 mm
09:59 23.1 °C 14.8 °C 1006.7 hPa SSO 3.9 km/h 8 km/h 59.6% 0.0 mm
10:04 23.5 °C 14.8 °C 1006.7 hPa North 2.9 km/h 5.6 km/h 58.3% 0.0 mm
10:09 24.1 °C 14.9 °C 1006.7 hPa North 2.7 km/h 4.8 km/h 56.4% 0.0 mm
10:14 24.6 °C 14.6 °C 1006.7 hPa NO 2.2 km/h 20.1 km/h 53.8% 0.0 mm
10:19 25 °C 12.9 °C 1006.7 hPa Oeste 4.5 km/h 20.9 km/h 47% 0.0 mm
10:24 25.3 °C 12.5 °C 1006.6 hPa Oeste 8.4 km/h 26.2 km/h 44.9% 0.0 mm
10:29 25.6 °C 12.4 °C 1006.6 hPa ONO 10.1 km/h 25.9 km/h 43.8% 0.0 mm
10:34 25.7 °C 12.2 °C 1006.6 hPa Oeste 13 km/h 27.8 km/h 43.1% 0.0 mm
10:39 25.8 °C 11.8 °C 1006.5 hPa Oeste 14.6 km/h 33.3 km/h 41.6% 0.0 mm
10:44 26 °C 11.8 °C 1006.5 hPa Oeste 17.2 km/h 33.8 km/h 41.2% 0.0 mm
10:49 26.2 °C 11.6 °C 1006.5 hPa Oeste 15.7 km/h 24.1 km/h 40.1% 0.0 mm
10:54 26.4 °C 11.1 °C 1006.5 hPa OSO 13 km/h 24.5 km/h 38.5% 0.0 mm
10:59 26.6 °C 10.5 °C 1006.5 hPa ONO 13 km/h 24.1 km/h 36.5% 0.0 mm
11:04 26.8 °C 10 °C 1006.5 hPa Oeste 13 km/h 25.9 km/h 35% 0.0 mm
11:09 26.9 °C 9.7 °C 1006.5 hPa Oeste 13.3 km/h 30.6 km/h 34% 0.0 mm
11:14 26.9 °C 8.9 °C 1006.5 hPa ONO 13.7 km/h 30.6 km/h 32.1% 0.0 mm
11:19 26.8 °C 8.4 °C 1006.7 hPa ONO 15.3 km/h 33.3 km/h 31.3% 0.0 mm
11:24 26.8 °C 8.3 °C 1006.7 hPa ONO 18 km/h 33.8 km/h 31% 0.0 mm
11:29 27 °C 8.1 °C 1006.7 hPa ONO 17.7 km/h 29.6 km/h 30.4% 0.0 mm
11:34 27.1 °C 7.8 °C 1006.9 hPa Oeste 17.2 km/h 29 km/h 29.6% 0.0 mm
11:39 27.2 °C 7.7 °C 1006.9 hPa Oeste 16.9 km/h 34.3 km/h 29.2% 0.0 mm
11:44 27.2 °C 7.6 °C 1006.9 hPa ONO 16.4 km/h 34.6 km/h 28.9% 0.0 mm
11:49 27.2 °C 7.5 °C 1007.0 hPa ONO 16.1 km/h 35.4 km/h 28.9% 0.0 mm
11:54 27.2 °C 7.7 °C 1007.0 hPa NO 15.6 km/h 39.6 km/h 29.2% 0.0 mm
11:59 27.2 °C 7.7 °C 1007.0 hPa NO 17.5 km/h 40.2 km/h 29.1% 0.0 mm
12:04 27 °C 7.7 °C 1007.2 hPa NO 20.1 km/h 37 km/h 29.5% 0.0 mm
12:09 27.1 °C 7.5 °C 1007.2 hPa NO 20.7 km/h 42.6 km/h 29% 0.0 mm
12:14 26.9 °C 7.1 °C 1007.2 hPa NO 21.7 km/h 41.8 km/h 28.7% 0.0 mm
12:19 26.7 °C 6.8 °C 1007.2 hPa NO 21.7 km/h 42.6 km/h 28.2% 0.0 mm
12:24 26.8 °C 6.7 °C 1007.2 hPa ONO 21.7 km/h 41.8 km/h 27.9% 0.0 mm
12:29 26.8 °C 6.3 °C 1007.2 hPa NO 22.3 km/h 40.7 km/h 27.2% 0.0 mm
12:34 26.8 °C 6.2 °C 1007.4 hPa NO 23.3 km/h 40.2 km/h 26.9% 0.0 mm
12:39 27 °C 6 °C 1007.4 hPa NO 22.4 km/h 38.9 km/h 26.2% 0.0 mm
12:44 26.9 °C 5.6 °C 1007.4 hPa NO 20.9 km/h 44.4 km/h 25.8% 0.0 mm
12:49 26.9 °C 5.3 °C 1007.5 hPa NO 21.9 km/h 45.1 km/h 25.2% 0.0 mm
12:54 26.8 °C 4.8 °C 1007.5 hPa NO 23.7 km/h 46.3 km/h 24.5% 0.0 mm
12:59 26.8 °C 4.6 °C 1007.5 hPa NO 23.7 km/h 46.7 km/h 24% 0.0 mm
13:04 26.8 °C 4.2 °C 1007.5 hPa ONO 23.7 km/h 41.2 km/h 23.4% 0.0 mm
13:09 26.7 °C 3.8 °C 1007.5 hPa NO 24.2 km/h 50.4 km/h 23% 0.0 mm
13:14 26.8 °C 3.6 °C 1007.5 hPa NO 25.1 km/h 49.9 km/h 22.5% 0.0 mm
13:19 26.9 °C 3.2 °C 1007.7 hPa NO 24.6 km/h 46.3 km/h 21.7% 0.0 mm
13:24 26.9 °C 2.7 °C 1007.7 hPa ONO 23.7 km/h 46.7 km/h 21% 0.0 mm
13:29 27.2 °C 2.9 °C 1007.7 hPa ONO 23.7 km/h 35.4 km/h 20.9% 0.0 mm
13:34 27.3 °C 2.4 °C 1007.7 hPa ONO 23.7 km/h 37.8 km/h 20.1% 0.0 mm
13:39 27.3 °C 2.3 °C 1007.7 hPa ONO 23.5 km/h 37 km/h 20% 0.0 mm
13:44 27.3 °C 2.3 °C 1007.7 hPa ONO 23.3 km/h 35.4 km/h 19.8% 0.0 mm
13:49 27.3 °C 1.7 °C 1007.7 hPa NO 20.5 km/h 33.3 km/h 19% 0.0 mm
13:54 27.3 °C 1.4 °C 1007.7 hPa ONO 16.1 km/h 38.9 km/h 18.6% 0.0 mm
13:59 27.3 °C 1 °C 1007.7 hPa ONO 18.6 km/h 41.2 km/h 18.1% 0.0 mm
14:04 27.3 °C 0.9 °C 1007.9 hPa ONO 22.1 km/h 41.8 km/h 18% 0.0 mm
14:09 27.3 °C 0.5 °C 1007.9 hPa NO 22.5 km/h 42.6 km/h 17.5% 0.0 mm
14:14 27.3 °C 0.7 °C 1007.9 hPa NO 23.3 km/h 41.8 km/h 17.8% 0.0 mm
14:19 27.4 °C 0.9 °C 1008.0 hPa ONO 23 km/h 41.8 km/h 17.9% 0.0 mm
14:24 27.7 °C 1.7 °C 1008.0 hPa ONO 22.5 km/h 40.2 km/h 18.7% 0.0 mm
14:29 27.7 °C 0.9 °C 1008.0 hPa NO 21.6 km/h 39.6 km/h 17.7% 0.0 mm
14:34 27.3 °C 0.8 °C 1008.0 hPa NO 20.1 km/h 40.2 km/h 17.9% 0.0 mm
14:39 27.1 °C 0.8 °C 1008.0 hPa ONO 21 km/h 46.3 km/h 18% 0.0 mm
14:44 26.9 °C 0.6 °C 1008.0 hPa NO 22.5 km/h 46.7 km/h 18% 0.0 mm
14:49 27 °C 0.7 °C 1008.1 hPa ONO 22.4 km/h 42.3 km/h 18% 0.0 mm
14:54 27.2 °C 0.9 °C 1008.1 hPa ONO 22.1 km/h 42.6 km/h 18.1% 0.0 mm
14:59 27.3 °C 0.9 °C 1008.1 hPa ONO 23.3 km/h 40.7 km/h 18% 0.0 mm
15:04 27.3 °C 0.5 °C 1008.1 hPa ONO 25.1 km/h 43.1 km/h 17.5% 0.0 mm
15:09 27.2 °C 0 °C 1007.9 hPa ONO 25.9 km/h 43.5 km/h 17% 0.0 mm
15:14 27.3 °C 0.8 °C 1007.9 hPa ONO 27 km/h 40.7 km/h 17.9% 0.0 mm
15:19 27.5 °C 1.1 °C 1008.0 hPa NO 25.2 km/h 40.2 km/h 18% 0.0 mm
15:24 27.3 °C 0.4 °C 1008.0 hPa NO 22.1 km/h 42 km/h 17.3% 0.0 mm
15:29 27.2 °C 0.8 °C 1008.0 hPa NO 22.2 km/h 41.8 km/h 18% 0.0 mm
15:34 27.2 °C 0.4 °C 1008.0 hPa ONO 22.5 km/h 37 km/h 17.5% 0.0 mm
15:39 27.3 °C 0.9 °C 1007.9 hPa ONO 21.6 km/h 44.3 km/h 18% 0.0 mm
15:44 27.5 °C 0.7 °C 1007.9 hPa ONO 20.1 km/h 45.1 km/h 17.6% 0.0 mm
15:49 27.5 °C 0.9 °C 1007.9 hPa ONO 21.1 km/h 40.2 km/h 17.8% 0.0 mm
15:54 27.8 °C 0.6 °C 1007.9 hPa NO 22.5 km/h 33.8 km/h 17.2% 0.0 mm
15:59 28 °C 0.7 °C 1007.9 hPa NO 20.3 km/h 33.3 km/h 17% 0.0 mm
16:04 28.3 °C 0.6 °C 1007.9 hPa ONO 17.2 km/h 33.8 km/h 16.7% 0.0 mm
16:09 28.2 °C 0.4 °C 1007.9 hPa Oeste 18.2 km/h 34.3 km/h 16.5% 0.0 mm
16:14 28.3 °C 0.7 °C 1007.9 hPa NO 19.8 km/h 33.8 km/h 16.8% 0.0 mm
16:19 28.4 °C 1 °C 1007.9 hPa NO 19.5 km/h 37 km/h 17% 0.0 mm
16:24 28.3 °C 0.9 °C 1007.8 hPa ONO 19 km/h 37 km/h 17% 0.0 mm
16:29 28.2 °C 1.2 °C 1007.8 hPa NO 20.1 km/h 37 km/h 17.5% 0.0 mm
16:34 28.2 °C 1.2 °C 1007.8 hPa NO 22.1 km/h 42.6 km/h 17.5% 0.0 mm
16:39 28.3 °C 1.7 °C 1007.7 hPa NO 21.6 km/h 41.8 km/h 18% 0.0 mm
16:44 28.3 °C 0.9 °C 1007.7 hPa ONO 20.9 km/h 39.6 km/h 17% 0.0 mm
16:49 28.2 °C 0.9 °C 1007.7 hPa ONO 22 km/h 41.2 km/h 17% 0.0 mm
16:54 28.3 °C 0.9 °C 1007.7 hPa ONO 23.7 km/h 41.8 km/h 17% 0.0 mm
16:59 28.3 °C 0.9 °C 1007.7 hPa NO 23.2 km/h 42.6 km/h 17% 0.0 mm
17:04 28.4 °C 1 °C 1007.8 hPa NO 22.5 km/h 41.8 km/h 17% 0.0 mm
17:09 28.6 °C 1.2 °C 1007.8 hPa NO 20.9 km/h 29.8 km/h 17% 0.0 mm
17:14 28.6 °C 1.2 °C 1007.8 hPa NO 18 km/h 30.6 km/h 17% 0.0 mm
17:19 28.7 °C 1.3 °C 1007.8 hPa ONO 17.7 km/h 27.8 km/h 17.1% 0.0 mm
17:24 28.7 °C 1.2 °C 1007.8 hPa ONO 17.2 km/h 28.2 km/h 17% 0.0 mm
17:29 28.6 °C 1.1 °C 1007.8 hPa ONO 16.9 km/h 35.2 km/h 17% 0.0 mm
17:34 28.4 °C 1 °C 1007.8 hPa NO 16.4 km/h 35.4 km/h 17% 0.0 mm
17:39 28.6 °C 1.2 °C 1007.8 hPa NO 15.8 km/h 25.7 km/h 17% 0.0 mm
17:44 28.8 °C 1.4 °C 1007.8 hPa NO 14.8 km/h 29.6 km/h 17% 0.0 mm
17:49 28.9 °C 1.4 °C 1007.9 hPa NO 14.4 km/h 29 km/h 17% 0.0 mm
17:54 28.8 °C 1.1 °C 1007.9 hPa ONO 13.7 km/h 26.2 km/h 16.7% 0.0 mm
17:59 28.7 °C 1.2 °C 1007.9 hPa NO 13.1 km/h 25.7 km/h 17% 0.0 mm
18:04 28.6 °C 1.4 °C 1007.9 hPa ONO 12.2 km/h 20.9 km/h 17.3% 0.0 mm
18:09 28.7 °C 1.7 °C 1007.9 hPa ONO 12.5 km/h 25.9 km/h 17.7% 0.0 mm
18:14 28.9 °C 1.8 °C 1007.9 hPa ONO 13 km/h 26.2 km/h 17.5% 0.0 mm
18:19 28.9 °C 1.4 °C 1008.0 hPa ONO 13.3 km/h 25.9 km/h 17% 0.0 mm
18:24 28.8 °C 1.3 °C 1008.0 hPa ONO 13.7 km/h 25.7 km/h 17% 0.0 mm
18:29 28.7 °C 1.7 °C 1008.0 hPa NNO 12.1 km/h 20.4 km/h 17.7% 0.0 mm
18:34 28.6 °C 2 °C 1008.1 hPa NNO 9.5 km/h 22.5 km/h 18% 0.0 mm
18:39 28.3 °C 1.8 °C 1008.1 hPa NO 11 km/h 22.5 km/h 18% 0.0 mm
18:44 28.3 °C 1.7 °C 1008.1 hPa NNO 13.7 km/h 22.5 km/h 18% 0.0 mm
18:49 28.3 °C 1.7 °C 1008.1 hPa NO 12.3 km/h 22.2 km/h 18% 0.0 mm
18:54 28.3 °C 1.2 °C 1008.1 hPa NO 10 km/h 25.9 km/h 17.3% 0.0 mm
18:59 28.3 °C 1.5 °C 1008.1 hPa NO 10.9 km/h 25.7 km/h 17.8% 0.0 mm
19:04 28.3 °C 1.3 °C 1008.2 hPa NO 12.2 km/h 27 km/h 17.5% 0.0 mm
19:09 28.2 °C 1.6 °C 1008.2 hPa ONO 12.9 km/h 27.8 km/h 18% 0.0 mm
19:14 28.1 °C 1.6 °C 1008.2 hPa NO 14 km/h 27.4 km/h 18% 0.0 mm
19:19 28.1 °C 1.5 °C 1008.2 hPa NO 13.2 km/h 22.2 km/h 18% 0.0 mm
19:24 28 °C 1.4 °C 1008.2 hPa NNO 11.9 km/h 22.5 km/h 18% 0.0 mm
19:29 27.9 °C 1.4 °C 1008.2 hPa NO 11.6 km/h 24.1 km/h 18% 0.0 mm
19:34 27.9 °C 1.4 °C 1008.3 hPa NNO 11.1 km/h 28.2 km/h 18% 0.0 mm
19:39 27.9 °C 1.4 °C 1008.3 hPa NO 11.4 km/h 27.8 km/h 18% 0.0 mm
19:44 27.8 °C 1.4 °C 1008.3 hPa NO 11.9 km/h 22.5 km/h 18% 0.0 mm
19:49 27.8 °C 1.7 °C 1008.3 hPa NO 11.1 km/h 20.9 km/h 18.5% 0.0 mm
19:54 27.8 °C 1.4 °C 1008.3 hPa NO 10 km/h 19.3 km/h 18.1% 0.0 mm
19:59 27.7 °C 1.4 °C 1008.3 hPa ONO 10.8 km/h 22.2 km/h 18.2% 0.0 mm
20:04 27.7 °C 1.9 °C 1008.5 hPa NO 11.9 km/h 22.5 km/h 19% 0.0 mm
20:09 27.7 °C 1.9 °C 1008.5 hPa NO 11.2 km/h 15.6 km/h 19% 0.0 mm
20:14 27.8 °C 2 °C 1008.5 hPa NO 10 km/h 18.5 km/h 18.9% 0.0 mm
20:19 27.8 °C 1.7 °C 1008.5 hPa NO 10 km/h 19.3 km/h 18.6% 0.0 mm
20:24 27.7 °C 1.2 °C 1008.5 hPa NO 10 km/h 24.1 km/h 18% 0.0 mm
20:29 27.6 °C 1.1 °C 1008.5 hPa NO 10.7 km/h 24.1 km/h 18% 0.0 mm
20:34 27.6 °C 1.2 °C 1008.7 hPa NO 11.9 km/h 22.5 km/h 18.1% 0.0 mm
20:39 27.4 °C 1.7 °C 1008.7 hPa NO 11 km/h 16.1 km/h 19% 0.0 mm
20:44 27.3 °C 1.7 °C 1008.7 hPa NO 9.5 km/h 14.8 km/h 19% 0.0 mm
20:49 27.3 °C 1.6 °C 1008.8 hPa NO 9.1 km/h 14.8 km/h 19% 0.0 mm
20:54 27.2 °C 1.5 °C 1008.8 hPa NO 8.4 km/h 14.5 km/h 19% 0.0 mm
20:59 27.1 °C 1.5 °C 1008.8 hPa NO 8 km/h 15.6 km/h 19% 0.0 mm
21:04 26.9 °C 1.3 °C 1008.9 hPa NO 7.6 km/h 16.1 km/h 19% 0.0 mm
21:09 26.9 °C 1.3 °C 1008.9 hPa NO 7.3 km/h 11.1 km/h 19% 0.0 mm
21:14 26.8 °C 1.4 °C 1008.9 hPa NO 6.9 km/h 11.3 km/h 19.2% 0.0 mm
21:19 26.8 °C 1.9 °C 1008.9 hPa ONO 6.5 km/h 9.7 km/h 20% 0.0 mm
21:24 26.7 °C 1.9 °C 1008.9 hPa ONO 5.8 km/h 8 km/h 20% 0.0 mm
21:29 26.7 °C 1.8 °C 1008.9 hPa ONO 5.4 km/h 9.5 km/h 19.9% 0.0 mm
21:34 26.6 °C 1.8 °C 1009.0 hPa ONO 4.7 km/h 10 km/h 20% 0.0 mm
21:39 26.5 °C 1.7 °C 1009.0 hPa ONO 5.1 km/h 9.7 km/h 20% 0.0 mm
21:44 26.4 °C 1.6 °C 1009.0 hPa ONO 5.8 km/h 9.7 km/h 20% 0.0 mm
21:49 26.3 °C 1.6 °C 1009.3 hPa NO 5 km/h 8 km/h 20% 0.0 mm
21:54 26.3 °C 1.6 °C 1009.3 hPa NO 3.9 km/h 6.4 km/h 20% 0.0 mm
21:59 26.2 °C 1.6 °C 1009.3 hPa NO 3.6 km/h 5.8 km/h 20.2% 0.0 mm
22:04 26.2 °C 1.8 °C 1009.4 hPa NO 3.2 km/h 6.9 km/h 20.5% 0.0 mm
22:09 26.2 °C 1.9 °C 1009.4 hPa ONO 3.1 km/h 8 km/h 20.7% 0.0 mm
22:14 26.1 °C 1.6 °C 1009.4 hPa ONO 2.9 km/h 11.1 km/h 20.3% 0.0 mm
22:19 26 °C 1.6 °C 1009.7 hPa NO 4.3 km/h 13 km/h 20.5% 0.0 mm
22:24 25.9 °C 1.8 °C 1009.7 hPa NO 6.5 km/h 12.9 km/h 20.9% 0.0 mm
22:29 25.8 °C 1.8 °C 1009.7 hPa ONO 6.5 km/h 13 km/h 21% 0.0 mm
22:34 25.7 °C 1.7 °C 1010.0 hPa ONO 6.5 km/h 13.7 km/h 21% 0.0 mm
22:39 25.7 °C 1.7 °C 1010.0 hPa ONO 6.9 km/h 15.6 km/h 21% 0.0 mm
22:44 25.6 °C 1.7 °C 1010.0 hPa ONO 7.6 km/h 16.1 km/h 21% 0.0 mm
22:49 25.5 °C 1.6 °C 1010.2 hPa ONO 7.9 km/h 14.5 km/h 21% 0.0 mm
22:54 25.4 °C 1.5 °C 1010.2 hPa ONO 8.4 km/h 11.3 km/h 21% 0.0 mm
22:59 25.3 °C 1.4 °C 1010.2 hPa ONO 7.6 km/h 11.1 km/h 21% 0.0 mm
23:04 25.3 °C 1.4 °C 1010.4 hPa NO 6.5 km/h 11.3 km/h 21% 0.0 mm
23:09 25.2 °C 1.9 °C 1010.4 hPa NNO 5.9 km/h 9.7 km/h 22% 0.0 mm
23:14 25 °C 2.1 °C 1010.4 hPa NNE 5 km/h 8 km/h 22.5% 0.0 mm
23:19 24.8 °C 2.2 °C 1010.7 hPa North 4.5 km/h 8 km/h 23% 0.0 mm
23:24 24.5 °C 2.3 °C 1010.7 hPa NNE 3.9 km/h 8 km/h 23.5% 0.0 mm
23:29 24.3 °C 1.9 °C 1010.7 hPa NNE 2.4 km/h 3.2 km/h 23.1% 0.0 mm
23:34 24.2 °C 2.3 °C 1010.9 hPa Calm     24% 0.0 mm
23:39 24.2 °C 2.3 °C 1010.9 hPa Calm     24% 0.0 mm
23:44 24.1 °C 2.4 °C 1010.9 hPa Calm   7.4 km/h 24.3% 0.0 mm
23:49 24 °C 2.3 °C 1011.1 hPa Oeste 1.1 km/h 8 km/h 24.2% 0.0 mm
23:54 23.9 °C 2.3 °C 1011.1 hPa Oeste 2.9 km/h 6.4 km/h 24.5% 0.0 mm
23:59 23.8 °C 2.1 °C 1011.1 hPa Oeste 2.6 km/h 5.6 km/h 24.2% 0.0 mm
Murcia-Puente Tocinos, España
Compliments of Weather Underground - 2.75 mb

La estación de MeteoMurcia.com, publica sus datos en los siguientes proyectos:

Weather Underground PWS IMURCIAP2 Meteoclimatic www.awekas.at

W3Counter
Web Analytics